createdAt,value
2018-12-17T00:02:16.881Z,32.07
2018-12-17T00:04:45.488Z,31.27
2018-12-17T00:07:14.326Z,30.37
2018-12-17T00:09:42.706Z,30.23
2018-12-17T00:12:16.517Z,29.10
2018-12-17T00:14:41.819Z,30.70
2018-12-17T00:17:10.164Z,29.43
2018-12-17T00:19:38.711Z,30.07
2018-12-17T00:22:07.217Z,28.03
2018-12-17T00:24:35.840Z,28.53
2018-12-17T00:27:04.320Z,28.57
2018-12-17T00:29:32.759Z,27.67
2018-12-17T00:32:01.144Z,28.10
2018-12-17T00:34:29.710Z,28.83
2018-12-17T00:36:58.125Z,29.37
2018-12-17T00:39:26.436Z,28.90
2018-12-17T00:41:54.731Z,27.70
2018-12-17T00:44:23.074Z,27.27
2018-12-17T00:46:51.583Z,27.30
2018-12-17T00:49:20.196Z,26.57
2018-12-17T00:51:48.835Z,27.70
2018-12-17T00:54:17.379Z,28.37
2018-12-17T00:56:45.921Z,28.27
2018-12-17T00:59:14.598Z,29.07
2018-12-17T01:01:43.169Z,28.47
2018-12-17T01:04:11.667Z,29.43
2018-12-17T01:06:40.066Z,29.37
2018-12-17T01:09:09.360Z,27.70
2018-12-17T01:11:38.317Z,28.27
2018-12-17T01:14:06.625Z,27.63
2018-12-17T01:16:35.079Z,27.00
2018-12-17T01:19:03.451Z,27.93
2018-12-17T01:21:32.566Z,26.70
2018-12-17T01:24:00.893Z,26.23
2018-12-17T01:26:29.838Z,25.53
2018-12-17T01:28:58.218Z,25.07
2018-12-17T01:31:26.533Z,23.27
2018-12-17T01:33:55.614Z,22.47
2018-12-17T01:36:23.925Z,20.93
2018-12-17T01:38:53.037Z,21.37
2018-12-17T01:41:21.859Z,19.60
2018-12-17T01:43:50.363Z,21.47
2018-12-17T01:46:18.769Z,18.80
2018-12-17T01:48:47.178Z,19.43
2018-12-17T01:51:15.645Z,19.00
2018-12-17T01:53:44.147Z,19.37
2018-12-17T01:56:12.497Z,18.83
2018-12-17T01:58:40.878Z,18.87
2018-12-17T02:01:09.421Z,18.77
2018-12-17T02:03:37.751Z,20.13
2018-12-17T02:06:06.232Z,19.87
2018-12-17T02:08:35.185Z,20.23
2018-12-17T02:11:04.106Z,20.50
2018-12-17T02:13:32.405Z,21.00
2018-12-17T02:16:00.713Z,19.90
2018-12-17T02:18:29.083Z,22.27
2018-12-17T02:20:58.026Z,27.77
2018-12-17T02:23:26.437Z,28.53
2018-12-17T02:25:54.723Z,26.77
2018-12-17T02:28:23.095Z,24.03
2018-12-17T02:30:51.630Z,26.50
2018-12-17T02:33:20.179Z,20.70
2018-12-17T02:35:48.653Z,23.33
2018-12-17T02:38:17.013Z,25.67
2018-12-17T02:40:45.541Z,27.10
2018-12-17T02:43:14.227Z,26.67
2018-12-17T02:45:42.715Z,24.87
2018-12-17T02:48:11.138Z,21.03
2018-12-17T02:50:39.428Z,21.53
2018-12-17T02:53:08.107Z,22.60
2018-12-17T02:55:36.681Z,22.80
2018-12-17T02:58:05.224Z,20.50
2018-12-17T03:00:33.807Z,19.07
2018-12-17T03:03:02.234Z,18.80
2018-12-17T03:05:30.498Z,20.23
2018-12-17T03:07:59.098Z,17.70
2018-12-17T03:10:27.522Z,18.07
2018-12-17T03:12:55.937Z,19.77
2018-12-17T03:15:24.308Z,16.93
2018-12-17T03:17:52.626Z,17.23
2018-12-17T03:20:21.018Z,16.60
2018-12-17T03:22:49.298Z,18.10
2018-12-17T03:25:17.804Z,16.90
2018-12-17T03:27:46.392Z,18.13
2018-12-17T03:30:14.923Z,17.37
2018-12-17T03:32:43.379Z,17.07
2018-12-17T03:35:12.179Z,18.10
2018-12-17T03:37:40.487Z,17.53
2018-12-17T03:40:08.972Z,16.63
2018-12-17T03:42:37.302Z,18.53
2018-12-17T03:45:06.002Z,16.87
2018-12-17T03:47:34.378Z,18.00
2018-12-17T03:50:03.327Z,17.57
2018-12-17T03:52:31.876Z,17.00
2018-12-17T03:55:00.190Z,17.17
2018-12-17T03:57:28.568Z,17.17
2018-12-17T03:59:56.867Z,17.43
2018-12-17T04:02:25.986Z,16.53
2018-12-17T04:04:54.647Z,16.30
2018-12-17T04:07:23.324Z,15.40
2018-12-17T04:09:52.279Z,15.20
2018-12-17T04:12:20.789Z,16.43
2018-12-17T04:14:49.207Z,17.43
2018-12-17T04:17:17.647Z,16.77
2018-12-17T04:19:46.307Z,19.43
2018-12-17T04:22:14.705Z,19.47
2018-12-17T04:24:43.211Z,21.10
2018-12-17T04:27:11.651Z,22.43
2018-12-17T04:29:40.057Z,22.43
2018-12-17T04:32:08.686Z,23.13
2018-12-17T04:34:37.108Z,23.03
2018-12-17T04:37:05.963Z,22.07
2018-12-17T04:39:34.363Z,23.20
2018-12-17T04:42:02.745Z,21.53
2018-12-17T04:44:31.128Z,21.40
2018-12-17T04:46:59.423Z,20.97
2018-12-17T04:49:27.965Z,21.10
2018-12-17T04:51:56.521Z,22.13
2018-12-17T04:54:25.553Z,22.33
2018-12-17T04:56:54.124Z,20.50
2018-12-17T04:59:22.718Z,20.80
2018-12-17T05:01:51.560Z,22.83
2018-12-17T05:04:20.002Z,23.07
2018-12-17T05:06:48.317Z,22.77
2018-12-17T05:09:16.966Z,21.57
2018-12-17T05:11:45.296Z,22.40
2018-12-17T05:14:13.752Z,21.00
2018-12-17T05:16:42.090Z,20.70
2018-12-17T05:19:11.133Z,21.80
2018-12-17T05:21:39.483Z,22.00
2018-12-17T05:24:07.877Z,20.83
2018-12-17T05:26:37.063Z,21.27
2018-12-17T05:29:05.522Z,22.70
2018-12-17T05:31:34.637Z,21.13
2018-12-17T05:34:03.060Z,19.83
2018-12-17T05:36:31.835Z,20.10
2018-12-17T05:39:00.158Z,17.03
2018-12-17T05:41:28.752Z,18.80
2018-12-17T05:43:57.115Z,17.97
2018-12-17T05:46:25.616Z,16.30
2018-12-17T05:48:54.037Z,17.07
2018-12-17T05:51:22.532Z,17.27
2018-12-17T05:53:50.897Z,17.33
2018-12-17T05:56:19.933Z,16.40
2018-12-17T05:58:48.320Z,17.90
2018-12-17T06:01:16.797Z,16.83
2018-12-17T06:03:45.419Z,17.60
2018-12-17T06:06:14.088Z,15.70
2018-12-17T06:08:42.886Z,17.17
2018-12-17T06:11:11.197Z,16.97
2018-12-17T06:13:39.633Z,15.10
2018-12-17T06:16:07.966Z,16.27
2018-12-17T06:18:36.598Z,15.73
2018-12-17T06:21:05.084Z,15.53
2018-12-17T06:23:33.550Z,15.47
2018-12-17T06:26:01.956Z,16.53
2018-12-17T06:28:30.406Z,16.17
2018-12-17T06:30:59.131Z,16.40
2018-12-17T06:33:27.577Z,15.27
2018-12-17T06:35:55.983Z,15.93
2018-12-17T06:38:24.479Z,15.63
2018-12-17T06:40:53.027Z,16.50
2018-12-17T06:43:21.430Z,17.43
2018-12-17T06:45:49.868Z,16.83
2018-12-17T06:48:18.786Z,16.57
2018-12-17T06:50:47.242Z,17.23
2018-12-17T06:53:16.672Z,17.37
2018-12-17T06:55:45.071Z,16.87
2018-12-17T06:58:13.852Z,16.47
2018-12-17T07:00:42.291Z,18.17
2018-12-17T07:03:11.391Z,17.17
2018-12-17T07:05:39.791Z,17.83
2018-12-17T07:08:08.547Z,16.40
2018-12-17T07:10:36.935Z,16.80
2018-12-17T07:13:05.416Z,17.47
2018-12-17T07:15:33.725Z,17.73
2018-12-17T07:18:02.048Z,17.70
2018-12-17T07:20:30.501Z,16.90
2018-12-17T07:22:59.095Z,16.63
2018-12-17T07:25:27.510Z,17.40
2018-12-17T07:27:55.845Z,17.70
2018-12-17T07:30:24.886Z,17.70
2018-12-17T07:32:53.413Z,17.53
2018-12-17T07:35:22.282Z,16.50
2018-12-17T07:37:50.690Z,16.37
2018-12-17T07:40:19.172Z,17.17
2018-12-17T07:42:47.976Z,16.77
2018-12-17T07:45:16.348Z,17.00
2018-12-17T07:47:44.652Z,16.57
2018-12-17T07:50:13.366Z,17.07
2018-12-17T07:52:42.074Z,17.10
2018-12-17T07:55:10.449Z,16.70
2018-12-17T07:57:39.533Z,17.93
2018-12-17T08:00:08.581Z,18.80
2018-12-17T08:02:37.017Z,18.73
2018-12-17T08:05:07.346Z,18.90
2018-12-17T08:07:36.471Z,17.93
2018-12-17T08:10:06.194Z,20.43
2018-12-17T08:12:34.720Z,21.63
2018-12-17T08:15:03.877Z,20.83
2018-12-17T08:17:32.419Z,19.83
2018-12-17T08:20:00.730Z,18.93
2018-12-17T08:22:29.330Z,19.33
2018-12-17T08:24:57.698Z,19.63
2018-12-17T08:27:26.393Z,17.97
2018-12-17T08:29:54.739Z,17.97
2018-12-17T08:32:23.327Z,15.67
2018-12-17T08:34:51.807Z,15.33
2018-12-17T08:37:20.186Z,15.27
2018-12-17T08:39:48.824Z,15.37
2018-12-17T08:42:17.162Z,15.30
2018-12-17T08:44:45.782Z,14.50
2018-12-17T08:47:14.313Z,13.53
2018-12-17T08:49:42.816Z,14.77
2018-12-17T08:52:11.158Z,13.37
2018-12-17T08:54:39.872Z,13.07
2018-12-17T08:57:08.195Z,12.47
2018-12-17T08:59:36.518Z,13.00
2018-12-17T09:02:04.939Z,13.40
2018-12-17T09:04:33.279Z,13.27
2018-12-17T09:07:01.847Z,14.33
2018-12-17T09:09:30.299Z,13.60
2018-12-17T09:11:58.625Z,12.97
2018-12-17T09:14:27.210Z,11.57
2018-12-17T09:16:55.909Z,10.97
2018-12-17T09:19:24.426Z,11.83
2018-12-17T09:21:52.756Z,12.37
2018-12-17T09:24:21.751Z,11.37
2018-12-17T09:26:50.212Z,13.63
2018-12-17T09:29:18.630Z,12.83
2018-12-17T09:31:47.076Z,13.03
2018-12-17T09:34:15.615Z,13.30
2018-12-17T09:36:43.958Z,12.43
2018-12-17T09:39:12.360Z,14.10
2018-12-17T09:41:41.544Z,12.47
2018-12-17T09:44:09.919Z,12.30
2018-12-17T09:46:38.433Z,12.37
2018-12-17T09:49:07.104Z,11.07
2018-12-17T09:51:35.430Z,10.50
2018-12-17T09:54:03.801Z,10.13
2018-12-17T09:56:32.792Z,9.97
2018-12-17T09:59:02.173Z,8.87
2018-12-17T10:01:31.461Z,8.13
2018-12-17T10:03:59.846Z,7.33
2018-12-17T10:06:28.670Z,6.33
2018-12-17T10:08:57.121Z,5.70
2018-12-17T10:11:25.450Z,5.77
2018-12-17T10:13:53.779Z,5.20
2018-12-17T10:16:22.572Z,5.97
2018-12-17T10:18:51.015Z,5.50
2018-12-17T10:21:19.388Z,5.67
2018-12-17T10:23:48.416Z,5.70
2018-12-17T10:26:16.979Z,5.10
2018-12-17T10:28:45.522Z,5.80
2018-12-17T10:31:14.072Z,5.50
2018-12-17T10:33:42.471Z,5.53
2018-12-17T10:36:10.792Z,5.40
2018-12-17T10:38:39.171Z,6.00
2018-12-17T10:41:07.685Z,5.67
2018-12-17T10:43:36.512Z,5.80
2018-12-17T10:46:10.213Z,5.07
2018-12-17T10:48:38.766Z,6.23
2018-12-17T10:51:07.080Z,5.70
2018-12-17T10:53:36.136Z,5.10
2018-12-17T10:56:04.696Z,5.40
2018-12-17T10:58:33.606Z,5.87
2018-12-17T11:01:07.309Z,5.70
2018-12-17T11:03:37.702Z,5.80
2018-12-17T11:06:07.253Z,5.50
2018-12-17T11:08:35.643Z,6.47
2018-12-17T11:11:04.785Z,5.83
2018-12-17T11:13:33.069Z,5.80
2018-12-17T11:16:01.575Z,5.70
2018-12-17T11:18:30.196Z,5.90
2018-12-17T11:20:58.485Z,6.40
2018-12-17T11:23:26.870Z,6.20
2018-12-17T11:25:55.273Z,6.37
2018-12-17T11:28:24.204Z,7.07
2018-12-17T11:30:52.646Z,5.83
2018-12-17T11:33:21.060Z,6.73
2018-12-17T11:35:49.527Z,7.20
2018-12-17T11:38:17.990Z,5.67
2018-12-17T11:40:46.374Z,6.20
2018-12-17T11:43:14.769Z,6.37
2018-12-17T11:45:43.221Z,5.60
2018-12-17T11:48:11.648Z,5.67
2018-12-17T11:50:41.050Z,6.80
2018-12-17T11:53:09.481Z,6.40
2018-12-17T11:55:37.890Z,6.00
2018-12-17T11:58:11.098Z,5.57
2018-12-17T12:00:41.408Z,4.90
2018-12-17T12:03:10.087Z,5.27
2018-12-17T12:05:38.615Z,5.30
2018-12-17T12:08:06.926Z,5.37
2018-12-17T12:10:35.424Z,6.03
2018-12-17T12:13:04.015Z,6.47
2018-12-17T12:15:32.729Z,6.40
2018-12-17T12:18:01.130Z,5.87
2018-12-17T12:20:30.131Z,6.43
2018-12-17T12:22:58.767Z,6.00
2018-12-17T12:25:27.153Z,5.83
2018-12-17T12:27:55.693Z,5.37
2018-12-17T12:30:24.146Z,5.90
2018-12-17T12:32:52.860Z,5.53
2018-12-17T12:35:21.668Z,5.70
2018-12-17T12:37:50.042Z,5.60
2018-12-17T12:40:19.179Z,5.47
2018-12-17T12:42:51.670Z,5.37
2018-12-17T12:45:18.706Z,4.80
2018-12-17T12:47:47.516Z,4.50
2018-12-17T12:50:15.887Z,5.57
2018-12-17T12:52:44.209Z,4.87
2018-12-17T12:55:12.587Z,4.90
2018-12-17T12:57:40.906Z,5.13
2018-12-17T13:00:11.819Z,5.30
2018-12-17T13:02:40.234Z,5.23
2018-12-17T13:05:08.854Z,5.23
2018-12-17T13:07:37.445Z,5.60
2018-12-17T13:10:07.749Z,5.53
2018-12-17T13:12:36.205Z,5.07
2018-12-17T13:15:05.531Z,5.47
2018-12-17T13:17:33.983Z,5.73
2018-12-17T13:20:02.535Z,5.60
2018-12-17T13:22:30.839Z,5.23
2018-12-17T13:24:59.319Z,5.30
2018-12-17T13:27:27.894Z,5.80
2018-12-17T13:29:56.225Z,5.57
2018-12-17T13:32:24.705Z,5.87
2018-12-17T13:34:53.054Z,5.73
2018-12-17T13:37:21.448Z,5.80
2018-12-17T13:39:50.160Z,6.13
2018-12-17T13:42:18.764Z,5.70
2018-12-17T13:44:47.268Z,6.20
2018-12-17T13:47:15.595Z,6.50
2018-12-17T13:49:44.091Z,7.00
2018-12-17T13:52:18.143Z,6.77
2018-12-17T13:54:46.603Z,7.07
2018-12-17T13:57:14.993Z,7.03
2018-12-17T13:59:43.544Z,7.70
2018-12-17T14:02:12.693Z,7.93
2018-12-17T14:04:41.066Z,8.30
2018-12-17T14:07:09.371Z,8.30
2018-12-17T14:12:24.674Z,9.10
2018-12-17T14:14:53.517Z,8.87
2018-12-17T14:17:27.565Z,8.73
2018-12-17T14:23:12.880Z,9.93
2018-12-17T14:25:42.014Z,10.43
2018-12-17T14:28:10.426Z,9.43
2018-12-17T14:30:39.017Z,9.50
2018-12-17T14:33:07.331Z,9.53
2018-12-17T14:35:35.672Z,10.03
2018-12-17T14:38:04.084Z,10.00
2018-12-17T14:40:33.310Z,9.93
2018-12-17T14:43:01.661Z,10.77
2018-12-17T14:45:29.994Z,11.27
2018-12-17T14:47:58.354Z,11.60
2018-12-17T14:50:26.795Z,11.73
2018-12-17T14:52:55.503Z,11.67
2018-12-17T14:55:23.940Z,12.00
2018-12-17T14:57:53.009Z,13.07
2018-12-17T15:00:21.339Z,13.20
2018-12-17T15:02:49.759Z,13.20
2018-12-17T15:05:18.444Z,12.67
2018-12-17T15:10:21.893Z,14.50
2018-12-17T15:12:50.260Z,14.03
2018-12-17T15:15:18.626Z,14.10
2018-12-17T15:17:46.980Z,14.40
2018-12-17T15:20:15.539Z,16.00
2018-12-17T15:22:43.957Z,14.83
2018-12-17T15:25:16.337Z,15.20
2018-12-17T15:27:44.662Z,15.13
2018-12-17T15:30:13.967Z,15.10
2018-12-17T15:32:42.420Z,16.33
2018-12-17T15:35:10.943Z,15.37
2018-12-17T15:37:39.561Z,15.73
2018-12-17T15:40:08.635Z,18.70
2018-12-17T15:42:40.847Z,17.10
2018-12-17T15:45:07.650Z,18.07
2018-12-17T15:47:36.316Z,20.13
2018-12-17T15:50:04.828Z,21.43
2018-12-17T15:52:33.388Z,20.63
2018-12-17T15:55:02.540Z,22.73
2018-12-17T15:57:31.264Z,23.33
2018-12-17T15:59:59.649Z,22.50
2018-12-17T16:02:28.042Z,24.53
2018-12-17T16:04:56.470Z,24.37
2018-12-17T16:07:24.975Z,22.93
2018-12-17T16:09:55.538Z,25.13
2018-12-17T16:12:23.884Z,27.07
2018-12-17T16:14:53.144Z,25.37
2018-12-17T16:17:21.852Z,27.07
2018-12-17T16:19:50.359Z,26.37
2018-12-17T16:22:18.719Z,26.57
2018-12-17T16:24:47.307Z,26.47
2018-12-17T16:27:19.256Z,26.73
2018-12-17T16:29:46.395Z,26.23
2018-12-17T16:32:14.931Z,25.73
2018-12-17T16:34:43.407Z,22.90
2018-12-17T16:37:12.068Z,25.63
2018-12-17T16:39:40.565Z,23.73
2018-12-17T16:42:09.553Z,23.70
2018-12-17T16:44:38.329Z,25.23
2018-12-17T16:47:07.148Z,23.73
2018-12-17T16:49:35.534Z,23.73
2018-12-17T16:52:04.234Z,25.20
2018-12-17T16:54:32.590Z,25.13
2018-12-17T16:57:01.103Z,26.47
2018-12-17T16:59:29.480Z,25.50
2018-12-17T17:02:04.330Z,26.70
2018-12-17T17:04:28.655Z,25.20
2018-12-17T17:06:57.239Z,26.23
2018-12-17T17:09:25.903Z,25.50
2018-12-17T17:11:54.468Z,24.33
2018-12-17T17:14:22.887Z,25.77
2018-12-17T17:16:51.739Z,27.40
2018-12-17T17:19:20.454Z,27.07
2018-12-17T17:21:49.361Z,24.87
2018-12-17T17:24:17.959Z,24.37
2018-12-17T17:26:46.674Z,25.73
2018-12-17T17:29:15.082Z,23.40
2018-12-17T17:31:43.454Z,26.43
2018-12-17T17:34:12.533Z,29.70
2018-12-17T17:36:40.853Z,27.73
2018-12-17T17:39:09.753Z,28.67
2018-12-17T17:41:38.327Z,27.83
2018-12-17T17:44:07.020Z,26.87
2018-12-17T17:46:35.658Z,31.13
2018-12-17T17:49:04.120Z,32.23
2018-12-17T17:51:33.182Z,32.40
2018-12-17T17:54:01.647Z,30.03
2018-12-17T17:56:30.045Z,30.53
2018-12-17T17:58:58.768Z,31.67
2018-12-17T18:01:27.118Z,32.90
2018-12-17T18:03:55.447Z,32.87
2018-12-17T18:06:24.692Z,31.97
2018-12-17T18:08:53.478Z,31.97
2018-12-17T18:11:22.039Z,33.03
2018-12-17T18:13:50.364Z,34.07
2018-12-17T18:16:18.787Z,34.23
2018-12-17T18:18:47.701Z,32.70
2018-12-17T18:21:16.147Z,34.77
2018-12-17T18:23:44.473Z,36.03
2018-12-17T18:26:13.050Z,37.03
2018-12-17T18:28:41.539Z,37.03
2018-12-17T18:31:09.888Z,36.37
2018-12-17T18:33:38.399Z,38.07
2018-12-17T18:36:07.023Z,39.07
2018-12-17T18:38:35.579Z,40.77
2018-12-17T18:41:04.163Z,40.47
2018-12-17T18:43:32.750Z,40.47
2018-12-17T18:46:01.338Z,39.70
2018-12-17T18:48:30.448Z,39.40
2018-12-17T18:50:58.908Z,40.57
2018-12-17T18:53:27.335Z,38.10
2018-12-17T18:55:56.158Z,41.57
2018-12-17T18:58:24.968Z,42.50
2018-12-17T19:00:53.735Z,43.23
2018-12-17T19:03:22.318Z,43.17
2018-12-17T19:05:51.411Z,42.13
2018-12-17T19:08:19.816Z,43.50
2018-12-17T19:10:50.167Z,42.37
2018-12-17T19:13:18.828Z,40.50
2018-12-17T19:15:47.399Z,42.37
2018-12-17T19:18:16.611Z,44.80
2018-12-17T19:20:45.788Z,44.40
2018-12-17T19:23:14.379Z,44.83
2018-12-17T19:25:42.857Z,40.30
2018-12-17T19:28:12.025Z,39.03
2018-12-17T19:30:41.072Z,41.03
2018-12-17T19:33:10.743Z,40.97
2018-12-17T19:35:39.191Z,39.13
2018-12-17T19:38:08.323Z,40.70
2018-12-17T19:40:37.299Z,40.93
2018-12-17T19:43:06.591Z,42.87
2018-12-17T19:45:35.461Z,41.57
2018-12-17T19:48:04.116Z,40.83
2018-12-17T19:50:33.238Z,43.10
2018-12-17T19:53:02.534Z,44.13
2018-12-17T19:55:31.403Z,42.03
2018-12-17T19:58:00.645Z,44.77
2018-12-17T20:00:29.454Z,42.33
2018-12-17T20:02:59.692Z,44.60
2018-12-17T20:05:29.059Z,46.97
2018-12-17T20:07:58.175Z,45.10
2018-12-17T20:10:27.099Z,42.40
2018-12-17T20:12:56.581Z,42.93
2018-12-17T20:15:25.430Z,42.20
2018-12-17T20:17:55.025Z,41.00
2018-12-17T20:20:24.961Z,39.57
2018-12-17T20:22:53.563Z,39.73
2018-12-17T20:25:22.373Z,40.10
2018-12-17T20:27:51.237Z,38.67
2018-12-17T20:30:19.931Z,41.03
2018-12-17T20:32:53.517Z,40.67
2018-12-17T20:35:20.197Z,40.00
2018-12-17T20:37:49.176Z,39.50
2018-12-17T20:40:21.670Z,40.40
2018-12-17T20:42:50.511Z,41.13
2018-12-17T20:45:19.057Z,37.67
2018-12-17T20:47:47.949Z,36.27
2018-12-17T20:50:17.855Z,41.20
2018-12-17T20:52:47.210Z,38.53
2018-12-17T20:55:16.152Z,38.07
2018-12-17T20:57:45.189Z,38.53
2018-12-17T21:00:14.649Z,38.70
2018-12-17T21:02:44.359Z,36.80
2018-12-17T21:05:13.592Z,38.63
2018-12-17T21:07:42.034Z,35.33
2018-12-17T21:10:11.285Z,36.37
2018-12-17T21:12:40.762Z,34.80
2018-12-17T21:15:10.127Z,33.90
2018-12-17T21:17:39.159Z,33.90
2018-12-17T21:20:07.893Z,34.37
2018-12-17T21:22:36.564Z,32.93
2018-12-17T21:25:05.644Z,32.80
2018-12-17T21:27:34.143Z,33.67
2018-12-17T21:30:06.341Z,31.00
2018-12-17T21:32:35.062Z,32.47
2018-12-17T21:35:04.375Z,32.13
2018-12-17T21:37:33.050Z,32.57
2018-12-17T21:40:01.987Z,32.60
2018-12-17T21:42:30.682Z,31.60
2018-12-17T21:44:59.480Z,34.47
2018-12-17T21:47:28.175Z,32.00
2018-12-17T21:49:56.781Z,33.13
2018-12-17T21:52:25.628Z,33.63
2018-12-17T21:54:54.361Z,32.63
2018-12-17T21:57:23.019Z,33.37
2018-12-17T21:59:51.433Z,33.50
2018-12-17T22:02:20.347Z,33.00
2018-12-17T22:04:49.310Z,31.43
2018-12-17T22:07:17.819Z,32.73
2018-12-17T22:09:46.537Z,31.07
2018-12-17T22:12:15.265Z,31.70
2018-12-17T22:14:44.144Z,30.97
2018-12-17T22:17:12.971Z,31.93
2018-12-17T22:19:41.701Z,32.30
2018-12-17T22:22:10.428Z,31.00
2018-12-17T22:24:39.079Z,31.03
2018-12-17T22:27:07.682Z,31.80
2018-12-17T22:29:36.190Z,32.00
2018-12-17T22:32:04.676Z,30.37
2018-12-17T22:34:33.316Z,30.87
2018-12-17T22:37:01.660Z,30.93
2018-12-17T22:39:30.211Z,31.77
2018-12-17T22:41:58.802Z,31.93
2018-12-17T22:44:27.286Z,31.53
2018-12-17T22:46:55.677Z,29.07
2018-12-17T22:49:24.144Z,30.87
2018-12-17T22:51:52.759Z,31.23
2018-12-17T22:54:21.281Z,30.03
2018-12-17T22:56:49.800Z,32.47
2018-12-17T22:59:18.384Z,31.60
2018-12-17T23:01:46.839Z,30.90
2018-12-17T23:04:15.196Z,30.07
2018-12-17T23:06:44.442Z,31.13
2018-12-17T23:09:12.069Z,30.30
2018-12-17T23:12:03.959Z,29.80
2018-12-17T23:14:50.325Z,29.40
2018-12-17T23:17:36.632Z,29.13
2018-12-17T23:20:05.394Z,30.10
2018-12-17T23:22:34.094Z,30.53
2018-12-17T23:25:03.538Z,28.07
2018-12-17T23:27:31.971Z,29.10
2018-12-17T23:30:00.984Z,31.00
2018-12-17T23:32:34.033Z,30.73
2018-12-17T23:35:02.330Z,30.30
2018-12-17T23:37:31.508Z,29.83
2018-12-17T23:39:59.931Z,28.93
2018-12-17T23:42:28.652Z,27.60
2018-12-17T23:44:57.188Z,28.83
2018-12-17T23:47:25.512Z,30.33
2018-12-17T23:49:54.230Z,29.53
2018-12-17T23:52:22.659Z,27.40
2018-12-17T23:54:51.027Z,28.60
2018-12-17T23:57:19.505Z,29.03
2018-12-17T23:59:47.829Z,28.50
